createdAt,value
2023-03-11T00:00:14.494Z,100.00
2023-03-11T00:02:41.052Z,100.00
2023-03-11T00:05:08.828Z,100.00
2023-03-11T00:07:37.609Z,100.00
2023-03-11T00:10:04.292Z,100.00
2023-03-11T00:12:30.680Z,100.00
2023-03-11T00:14:57.087Z,100.00
2023-03-11T00:17:23.499Z,100.00
2023-03-11T00:19:49.880Z,100.00
2023-03-11T00:22:16.336Z,100.00
2023-03-11T00:24:42.741Z,100.00
2023-03-11T00:27:09.172Z,100.00
2023-03-11T00:29:35.561Z,100.00
2023-03-11T00:32:01.958Z,100.00
2023-03-11T00:34:28.460Z,100.00
2023-03-11T00:36:54.892Z,100.00
2023-03-11T00:39:21.421Z,100.00
2023-03-11T00:41:47.863Z,100.00
2023-03-11T00:44:14.315Z,100.00
2023-03-11T00:46:40.871Z,100.00
2023-03-11T00:49:07.266Z,100.00
2023-03-11T00:51:34.323Z,100.00
2023-03-11T00:54:01.300Z,100.00
2023-03-11T00:56:27.733Z,100.00
2023-03-11T00:58:54.144Z,100.00
2023-03-11T01:01:21.269Z,100.00
2023-03-11T01:03:48.060Z,100.00
2023-03-11T01:06:14.730Z,100.00
2023-03-11T01:08:41.862Z,100.00
2023-03-11T01:11:08.848Z,100.00
2023-03-11T01:13:35.850Z,100.00
2023-03-11T01:16:02.885Z,100.00
2023-03-11T01:18:29.328Z,100.00
2023-03-11T01:20:55.710Z,100.00
2023-03-11T01:23:22.288Z,100.00
2023-03-11T01:25:49.141Z,100.00
2023-03-11T01:28:15.813Z,100.00
2023-03-11T01:30:42.928Z,100.00
2023-03-11T01:33:16.251Z,100.00
2023-03-11T01:35:43.584Z,100.00
2023-03-11T01:38:11.624Z,100.00
2023-03-11T01:40:41.810Z,100.00
2023-03-11T01:43:37.106Z,100.00
2023-03-11T01:46:09.591Z,100.00
2023-03-11T01:48:38.673Z,100.00
2023-03-11T01:51:06.427Z,100.00
2023-03-11T01:53:33.701Z,100.00
2023-03-11T01:56:02.989Z,100.00
2023-03-11T01:58:35.560Z,100.00
2023-03-11T02:01:03.165Z,100.00
2023-03-11T02:03:33.357Z,100.00
2023-03-11T02:06:02.703Z,100.00
2023-03-11T02:08:30.122Z,100.00
2023-03-11T02:10:57.329Z,100.00
2023-03-11T02:13:23.919Z,100.00
2023-03-11T02:15:50.401Z,100.00
2023-03-11T02:18:22.168Z,100.00
2023-03-11T02:21:10.558Z,100.00
2023-03-11T02:26:39.492Z,100.00
2023-03-11T02:29:09.423Z,100.00
2023-03-11T02:31:42.491Z,100.00
2023-03-11T02:34:18.790Z,100.00
2023-03-11T02:36:45.615Z,100.00
2023-03-11T02:39:12.070Z,100.00
2023-03-11T02:41:42.118Z,100.00
2023-03-11T02:44:11.596Z,100.00
2023-03-11T02:46:40.278Z,100.00
2023-03-11T02:49:06.878Z,100.00
2023-03-11T02:51:33.597Z,100.00
2023-03-11T02:54:04.329Z,100.00
2023-03-11T02:56:30.815Z,100.00
2023-03-11T02:58:57.300Z,100.00
2023-03-11T03:01:23.727Z,100.00
2023-03-11T03:03:50.550Z,100.00
2023-03-11T03:06:17.138Z,100.00
2023-03-11T03:08:43.526Z,100.00
2023-03-11T03:11:09.972Z,100.00
2023-03-11T03:13:36.577Z,100.00
2023-03-11T03:16:03.586Z,100.00
2023-03-11T03:18:30.305Z,100.00
2023-03-11T03:20:56.892Z,100.00
2023-03-11T03:23:23.444Z,100.00
2023-03-11T03:25:49.998Z,100.00
2023-03-11T03:28:16.586Z,100.00
2023-03-11T03:30:43.192Z,100.00
2023-03-11T03:33:09.636Z,100.00
2023-03-11T03:35:39.988Z,100.00
2023-03-11T03:38:06.498Z,100.00
2023-03-11T03:40:33.615Z,100.00
2023-03-11T03:43:00.011Z,100.00
2023-03-11T03:45:26.479Z,100.00
2023-03-11T03:47:52.905Z,100.00
2023-03-11T03:50:19.562Z,100.00
2023-03-11T03:52:46.489Z,100.00
2023-03-11T03:55:12.875Z,100.00
2023-03-11T03:57:39.775Z,100.00
2023-03-11T04:00:09.183Z,100.00
2023-03-11T04:02:35.796Z,100.00
2023-03-11T04:05:02.523Z,100.00
2023-03-11T04:07:28.928Z,100.00
2023-03-11T04:09:55.313Z,100.00
2023-03-11T04:12:21.686Z,100.00
2023-03-11T04:14:48.735Z,100.00
2023-03-11T04:17:17.678Z,100.00
2023-03-11T04:19:44.241Z,100.00
2023-03-11T04:22:10.779Z,100.00
2023-03-11T04:24:37.206Z,100.00
2023-03-11T04:27:03.683Z,100.00
2023-03-11T04:29:30.184Z,100.00
2023-03-11T04:31:56.794Z,100.00
2023-03-11T04:34:23.359Z,100.00
2023-03-11T04:36:54.051Z,100.00
2023-03-11T04:39:20.905Z,100.00
2023-03-11T04:41:47.465Z,100.00
2023-03-11T04:44:13.873Z,100.00
2023-03-11T04:46:40.247Z,100.00
2023-03-11T04:49:06.769Z,100.00
2023-03-11T04:51:33.158Z,100.00
2023-03-11T04:53:59.531Z,100.00
2023-03-11T04:56:25.899Z,100.00
2023-03-11T04:58:52.625Z,100.00
2023-03-11T05:01:19.124Z,100.00
2023-03-11T05:03:46.355Z,100.00
2023-03-11T05:06:12.866Z,100.00
2023-03-11T05:08:39.368Z,100.00
2023-03-11T05:11:05.830Z,100.00
2023-03-11T05:13:32.202Z,100.00
2023-03-11T05:15:58.690Z,100.00
2023-03-11T05:18:25.158Z,100.00
2023-03-11T05:20:51.585Z,100.00
2023-03-11T05:23:18.002Z,100.00
2023-03-11T05:25:44.560Z,100.00
2023-03-11T05:28:11.288Z,100.00
2023-03-11T05:30:37.775Z,100.00
2023-03-11T05:33:04.339Z,100.00
2023-03-11T05:35:30.927Z,100.00
2023-03-11T05:37:57.378Z,100.00
2023-03-11T05:40:23.784Z,100.00
2023-03-11T05:42:50.221Z,100.00
2023-03-11T05:45:16.740Z,100.00
2023-03-11T05:47:43.257Z,100.00
2023-03-11T05:50:11.767Z,100.00
2023-03-11T05:52:38.413Z,100.00
2023-03-11T05:55:05.268Z,100.00
2023-03-11T05:57:31.695Z,100.00
2023-03-11T05:59:58.307Z,100.00
2023-03-11T06:02:24.733Z,100.00
2023-03-11T06:04:51.338Z,100.00
2023-03-11T06:07:17.898Z,100.00
2023-03-11T06:09:44.314Z,100.00
2023-03-11T06:12:10.785Z,100.00
2023-03-11T06:14:38.616Z,100.00
2023-03-11T06:17:05.245Z,100.00
2023-03-11T06:19:31.714Z,100.00
2023-03-11T06:21:58.255Z,100.00
2023-03-11T06:24:24.794Z,100.00
2023-03-11T06:26:52.807Z,100.00
2023-03-11T06:29:19.584Z,100.00
2023-03-11T06:31:46.007Z,100.00
2023-03-11T06:34:12.748Z,100.00
2023-03-11T06:36:39.311Z,100.00
2023-03-11T06:39:05.851Z,100.00
2023-03-11T06:41:35.301Z,100.00
2023-03-11T06:44:01.821Z,100.00
2023-03-11T06:46:28.372Z,100.00
2023-03-11T06:48:54.768Z,100.00
2023-03-11T06:51:21.846Z,100.00
2023-03-11T06:53:50.506Z,100.00
2023-03-11T06:56:17.144Z,100.00
2023-03-11T06:58:43.703Z,100.00
2023-03-11T07:01:13.064Z,100.00
2023-03-11T07:03:40.349Z,100.00
2023-03-11T07:06:11.376Z,100.00
2023-03-11T07:08:37.800Z,100.00
2023-03-11T07:11:07.499Z,100.00
2023-03-11T07:13:34.066Z,100.00
2023-03-11T07:16:09.064Z,100.00
2023-03-11T07:18:36.386Z,100.00
2023-03-11T07:21:04.633Z,100.00
2023-03-11T07:23:31.457Z,100.00
2023-03-11T07:25:58.434Z,100.00
2023-03-11T07:28:26.895Z,100.00
2023-03-11T07:30:53.740Z,100.00
2023-03-11T07:33:21.134Z,100.00
2023-03-11T07:35:49.383Z,100.00
2023-03-11T07:38:17.923Z,100.00
2023-03-11T07:40:44.841Z,100.00
2023-03-11T07:43:11.313Z,100.00
2023-03-11T07:45:37.845Z,100.00
2023-03-11T07:48:04.869Z,100.00
2023-03-11T07:50:31.264Z,100.00
2023-03-11T07:52:57.690Z,100.00
2023-03-11T07:55:24.131Z,100.00
2023-03-11T07:57:51.619Z,100.00
2023-03-11T08:00:18.631Z,100.00
2023-03-11T08:02:45.048Z,100.00
2023-03-11T08:05:11.693Z,100.00
2023-03-11T08:07:38.153Z,100.00
2023-03-11T08:10:04.759Z,100.00
2023-03-11T08:12:31.151Z,100.00
2023-03-11T08:14:57.586Z,100.00
2023-03-11T08:17:24.087Z,100.00
2023-03-11T08:19:50.579Z,100.00
2023-03-11T08:22:16.982Z,100.00
2023-03-11T08:24:43.430Z,100.00
2023-03-11T08:27:09.963Z,100.00
2023-03-11T08:29:37.149Z,100.00
2023-03-11T08:32:04.045Z,100.00
2023-03-11T08:34:30.422Z,100.00
2023-03-11T08:36:56.998Z,100.00
2023-03-11T08:39:23.957Z,100.00
2023-03-11T08:41:50.348Z,100.00
2023-03-11T08:44:16.848Z,100.00
2023-03-11T08:46:43.392Z,100.00
2023-03-11T08:49:10.043Z,100.00
2023-03-11T08:51:36.997Z,100.00
2023-03-11T08:54:04.484Z,100.00
2023-03-11T08:56:31.149Z,100.00
2023-03-11T08:58:57.600Z,100.00
2023-03-11T09:01:24.077Z,100.00
2023-03-11T09:03:50.582Z,100.00
2023-03-11T09:06:17.778Z,100.00
2023-03-11T09:08:45.286Z,100.00
2023-03-11T09:11:13.496Z,100.00
2023-03-11T09:13:41.123Z,100.00
2023-03-11T09:16:12.141Z,100.00
2023-03-11T09:18:38.701Z,100.00
2023-03-11T09:21:05.523Z,100.00
2023-03-11T09:23:32.033Z,100.00
2023-03-11T09:25:58.462Z,100.00
2023-03-11T09:28:24.827Z,100.00
2023-03-11T09:30:51.267Z,100.00
2023-03-11T09:33:17.818Z,91.96
2023-03-11T09:35:44.891Z,87.00
2023-03-11T09:38:11.304Z,85.67
2023-03-11T09:40:53.336Z,78.29
2023-03-11T09:43:24.630Z,83.16
2023-03-11T09:46:26.713Z,75.96
2023-03-11T09:49:14.126Z,78.34
2023-03-11T09:51:47.043Z,78.93
2023-03-11T09:54:13.862Z,80.56
2023-03-11T09:56:44.439Z,74.97
2023-03-11T09:59:36.016Z,65.08
2023-03-11T10:02:04.002Z,72.88
2023-03-11T10:04:39.733Z,66.52
2023-03-11T10:07:14.612Z,64.29
2023-03-11T10:09:48.004Z,64.75
2023-03-11T10:12:30.344Z,57.54
2023-03-11T10:15:05.931Z,61.68
2023-03-11T10:18:09.597Z,51.96
2023-03-11T10:20:54.190Z,49.61
2023-03-11T10:23:55.481Z,50.05
2023-03-11T10:26:31.321Z,53.22
2023-03-11T10:29:25.831Z,50.36
2023-03-11T10:32:05.154Z,51.01
2023-03-11T10:34:39.556Z,53.53
2023-03-11T10:37:14.168Z,55.07
2023-03-11T10:39:41.138Z,57.57
2023-03-11T10:42:22.440Z,49.92
2023-03-11T10:44:49.704Z,54.57
2023-03-11T10:47:25.816Z,48.89
2023-03-11T10:49:55.019Z,52.55
2023-03-11T10:52:21.452Z,50.97
2023-03-11T10:54:58.456Z,51.29
2023-03-11T10:57:32.960Z,51.21
2023-03-11T11:00:01.756Z,51.54
2023-03-11T11:02:43.264Z,49.53
2023-03-11T11:05:28.609Z,45.90
2023-03-11T11:08:10.049Z,47.49
2023-03-11T11:10:37.223Z,50.91
2023-03-11T11:13:18.362Z,47.01
2023-03-11T11:16:00.395Z,45.20
2023-03-11T11:18:32.251Z,45.20
2023-03-11T11:21:08.227Z,43.23
2023-03-11T11:23:40.661Z,46.14
2023-03-11T11:26:17.466Z,43.33
2023-03-11T11:28:44.314Z,46.60
2023-03-11T11:31:24.258Z,42.50
2023-03-11T11:33:55.868Z,45.09
2023-03-11T11:36:27.633Z,45.54
2023-03-11T11:38:55.483Z,45.03
2023-03-11T11:41:24.831Z,44.49
2023-03-11T11:43:58.791Z,41.71
2023-03-11T11:46:31.419Z,42.74
2023-03-11T11:49:16.823Z,41.11
2023-03-11T11:51:55.016Z,42.24
2023-03-11T11:54:45.270Z,39.05
2023-03-11T11:57:17.041Z,42.00
2023-03-11T11:59:44.487Z,43.26
2023-03-11T12:02:45.142Z,38.21
2023-03-11T12:05:29.164Z,43.38
2023-03-11T12:08:21.509Z,39.48
2023-03-11T12:11:14.278Z,41.53
2023-03-11T12:14:09.385Z,39.18
2023-03-11T12:16:52.084Z,41.52
2023-03-11T12:19:33.605Z,41.90
2023-03-11T12:22:33.110Z,41.02
2023-03-11T12:25:22.107Z,43.53
2023-03-11T12:28:00.049Z,44.00
2023-03-11T12:30:36.828Z,44.63
2023-03-11T12:33:07.082Z,45.26
2023-03-11T12:35:35.830Z,45.25
2023-03-11T12:38:15.206Z,44.32
2023-03-11T12:40:44.381Z,44.19
2023-03-11T12:43:33.680Z,41.30
2023-03-11T12:46:02.246Z,43.01
2023-03-11T12:48:28.557Z,43.01
2023-03-11T12:50:58.379Z,42.65
2023-03-11T12:53:49.282Z,39.62
2023-03-11T12:56:44.628Z,41.15
2023-03-11T12:59:48.793Z,40.02
2023-03-11T13:02:36.124Z,39.58
2023-03-11T13:05:14.324Z,41.45
2023-03-11T13:08:25.564Z,39.37
2023-03-11T13:10:53.810Z,42.39
2023-03-11T13:13:40.125Z,40.59
2023-03-11T13:16:12.785Z,39.48
2023-03-11T13:18:41.123Z,42.12
2023-03-11T13:21:29.938Z,38.47
2023-03-11T13:24:29.471Z,38.23
2023-03-11T13:26:59.198Z,40.32
2023-03-11T13:29:52.053Z,39.67
2023-03-11T13:32:37.021Z,39.73
2023-03-11T13:35:47.761Z,40.31
2023-03-11T13:39:00.587Z,39.38
2023-03-11T13:41:32.670Z,41.58
2023-03-11T13:44:16.723Z,40.68
2023-03-11T13:46:49.793Z,41.85
2023-03-11T13:49:26.192Z,41.73
2023-03-11T13:51:56.908Z,42.28
2023-03-11T13:54:31.321Z,42.26
2023-03-11T13:57:02.727Z,43.33
2023-03-11T13:59:31.682Z,42.84
2023-03-11T14:02:06.897Z,43.01
2023-03-11T14:04:36.123Z,42.79
2023-03-11T14:07:27.577Z,42.56
2023-03-11T14:10:12.183Z,42.14
2023-03-11T14:12:39.128Z,41.99
2023-03-11T14:15:08.666Z,42.51
2023-03-11T14:17:35.405Z,42.23
2023-03-11T14:20:07.318Z,42.04
2023-03-11T14:22:34.202Z,42.32
2023-03-11T14:25:05.107Z,42.69
2023-03-11T14:27:31.983Z,42.82
2023-03-11T14:29:58.567Z,42.52
2023-03-11T14:32:27.429Z,42.46
2023-03-11T14:34:54.871Z,41.73
2023-03-11T14:37:30.310Z,42.14
2023-03-11T14:39:56.694Z,41.93
2023-03-11T14:42:38.855Z,40.47
2023-03-11T14:45:15.846Z,39.15
2023-03-11T14:47:55.475Z,39.88
2023-03-11T14:50:24.754Z,39.68
2023-03-11T14:52:58.993Z,38.59
2023-03-11T14:55:41.872Z,37.09
2023-03-11T14:58:20.619Z,37.83
2023-03-11T15:00:54.483Z,37.65
2023-03-11T15:03:31.674Z,36.14
2023-03-11T15:06:04.021Z,36.99
2023-03-11T15:08:42.397Z,36.88
2023-03-11T15:11:15.129Z,34.60
2023-03-11T15:13:44.680Z,36.53
2023-03-11T15:16:26.437Z,35.11
2023-03-11T15:18:54.553Z,36.79
2023-03-11T15:21:24.183Z,36.83
2023-03-11T15:23:56.577Z,36.22
2023-03-11T15:26:27.886Z,37.10
2023-03-11T15:28:57.324Z,36.56
2023-03-11T15:31:23.627Z,36.23
2023-03-11T15:33:51.790Z,36.09
2023-03-11T15:36:44.480Z,33.62
2023-03-11T15:39:18.174Z,33.82
2023-03-11T15:42:02.312Z,33.33
2023-03-11T15:44:36.312Z,34.49
2023-03-11T15:47:03.927Z,35.18
2023-03-11T15:49:30.759Z,35.31
2023-03-11T15:52:00.972Z,34.58
2023-03-11T15:54:27.827Z,35.72
2023-03-11T15:56:57.620Z,36.25
2023-03-11T15:59:24.622Z,36.13
2023-03-11T16:01:51.018Z,35.88
2023-03-11T16:04:19.235Z,36.19
2023-03-11T16:06:56.537Z,36.26
2023-03-11T16:09:31.566Z,36.35
2023-03-11T16:11:58.011Z,36.16
2023-03-11T16:14:24.442Z,36.28
2023-03-11T16:16:50.806Z,36.62
2023-03-11T16:19:17.222Z,36.77
2023-03-11T16:21:46.789Z,36.70
2023-03-11T16:24:18.933Z,36.56
2023-03-11T16:26:45.526Z,36.81
2023-03-11T16:29:18.915Z,37.09
2023-03-11T16:31:46.470Z,37.30
2023-03-11T16:34:12.892Z,37.22
2023-03-11T16:36:39.275Z,37.62
2023-03-11T16:39:05.769Z,37.85
2023-03-11T16:41:44.661Z,37.14
2023-03-11T16:44:11.681Z,37.56
2023-03-11T16:46:38.277Z,37.78
2023-03-11T16:49:05.353Z,37.77
2023-03-11T16:51:32.175Z,38.28
2023-03-11T16:53:58.791Z,38.22
2023-03-11T16:56:25.177Z,37.78
2023-03-11T16:58:51.612Z,37.89
2023-03-11T17:01:19.176Z,38.25
2023-03-11T17:03:48.545Z,38.17
2023-03-11T17:06:15.901Z,38.21
2023-03-11T17:08:42.368Z,38.74
2023-03-11T17:11:21.509Z,39.06
2023-03-11T17:13:48.130Z,39.76
2023-03-11T17:16:14.715Z,40.58
2023-03-11T17:18:41.776Z,40.81
2023-03-11T17:21:10.536Z,41.31
2023-03-11T17:23:36.952Z,41.72
2023-03-11T17:26:10.580Z,42.60
2023-03-11T17:28:37.591Z,42.79
2023-03-11T17:31:06.552Z,42.86
2023-03-11T17:33:33.768Z,43.65
2023-03-11T17:36:02.263Z,44.07
2023-03-11T17:38:29.444Z,44.35
2023-03-11T17:40:56.160Z,44.58
2023-03-11T17:43:23.314Z,44.98
2023-03-11T17:45:50.041Z,45.94
2023-03-11T17:48:16.548Z,46.98
2023-03-11T17:50:43.105Z,47.18
2023-03-11T17:53:09.655Z,47.32
2023-03-11T17:55:39.929Z,47.91
2023-03-11T17:58:06.846Z,47.91
2023-03-11T18:00:33.248Z,48.30
2023-03-11T18:02:59.645Z,48.75
2023-03-11T18:05:26.130Z,48.74
2023-03-11T18:07:52.478Z,50.21
2023-03-11T18:10:19.933Z,50.58
2023-03-11T18:12:47.392Z,51.09
2023-03-11T18:15:18.846Z,51.91
2023-03-11T18:17:46.469Z,52.15
2023-03-11T18:20:13.829Z,52.75
2023-03-11T18:22:44.483Z,52.81
2023-03-11T18:25:13.828Z,53.40
2023-03-11T18:27:41.147Z,53.64
2023-03-11T18:30:08.606Z,54.28
2023-03-11T18:32:35.140Z,54.43
2023-03-11T18:35:01.569Z,54.67
2023-03-11T18:37:28.005Z,55.33
2023-03-11T18:39:54.416Z,55.84
2023-03-11T18:42:20.883Z,55.52
2023-03-11T18:44:47.417Z,56.50
2023-03-11T18:47:13.804Z,57.61
2023-03-11T18:49:40.750Z,59.13
2023-03-11T18:52:07.223Z,59.95
2023-03-11T18:54:33.668Z,60.53
2023-03-11T18:57:00.124Z,60.33
2023-03-11T18:59:27.676Z,60.63
2023-03-11T19:01:54.563Z,62.05
2023-03-11T19:04:21.357Z,62.90
2023-03-11T19:06:50.089Z,62.63
2023-03-11T19:09:18.419Z,62.91
2023-03-11T19:11:45.612Z,63.05
2023-03-11T19:14:12.403Z,63.36
2023-03-11T19:16:38.978Z,63.87
2023-03-11T19:19:05.449Z,64.11
2023-03-11T19:21:31.916Z,63.94
2023-03-11T19:23:58.425Z,64.92
2023-03-11T19:26:41.464Z,65.94
2023-03-11T19:29:09.925Z,66.27
2023-03-11T19:31:36.290Z,66.78
2023-03-11T19:34:03.448Z,68.19
2023-03-11T19:36:30.153Z,69.09
2023-03-11T19:38:56.624Z,69.28
2023-03-11T19:41:23.195Z,70.98
2023-03-11T19:43:49.603Z,71.76
2023-03-11T19:46:20.466Z,73.16
2023-03-11T19:48:46.946Z,74.35
2023-03-11T19:51:13.500Z,74.04
2023-03-11T19:53:41.557Z,74.57
2023-03-11T19:56:08.766Z,75.44
2023-03-11T19:58:35.785Z,75.38
2023-03-11T20:01:02.339Z,74.94
2023-03-11T20:03:29.416Z,74.43
2023-03-11T20:06:02.384Z,76.33
2023-03-11T20:08:30.268Z,76.87
2023-03-11T20:11:01.610Z,78.18
2023-03-11T20:13:28.038Z,79.36
2023-03-11T20:15:54.548Z,79.75
2023-03-11T20:18:21.161Z,80.01
2023-03-11T20:20:47.631Z,79.47
2023-03-11T20:23:14.792Z,80.08
2023-03-11T20:25:42.250Z,80.40
2023-03-11T20:28:09.549Z,83.00
2023-03-11T20:30:38.171Z,83.79
2023-03-11T20:33:05.166Z,83.53
2023-03-11T20:35:31.635Z,83.10
2023-03-11T20:37:59.187Z,83.25
2023-03-11T20:40:25.773Z,85.58
2023-03-11T20:42:52.265Z,85.00
2023-03-11T20:45:22.327Z,86.11
2023-03-11T20:47:50.268Z,85.66
2023-03-11T20:50:17.323Z,87.23
2023-03-11T20:52:43.916Z,87.78
2023-03-11T20:55:11.636Z,88.57
2023-03-11T20:57:39.308Z,88.07
2023-03-11T21:00:11.211Z,90.02
2023-03-11T21:02:39.477Z,91.44
2023-03-11T21:05:08.342Z,91.29
2023-03-11T21:07:35.287Z,90.64
2023-03-11T21:10:03.969Z,90.18
2023-03-11T21:12:31.408Z,90.83
2023-03-11T21:14:58.053Z,92.74
2023-03-11T21:17:24.722Z,92.69
2023-03-11T21:19:51.289Z,92.90
2023-03-11T21:22:17.863Z,92.13
2023-03-11T21:24:45.220Z,92.30
2023-03-11T21:27:11.769Z,94.64
2023-03-11T21:29:38.293Z,95.43
2023-03-11T21:32:05.095Z,94.76
2023-03-11T21:34:31.669Z,97.03
2023-03-11T21:36:58.278Z,95.87
2023-03-11T21:39:24.803Z,96.24
2023-03-11T21:41:53.256Z,98.10
2023-03-11T21:44:19.786Z,97.34
2023-03-11T21:46:46.258Z,98.42
2023-03-11T21:49:12.793Z,98.00
2023-03-11T21:51:39.322Z,97.63
2023-03-11T21:54:06.018Z,98.11
2023-03-11T21:56:32.606Z,97.39
2023-03-11T21:58:59.079Z,99.18
2023-03-11T22:01:25.935Z,98.58
2023-03-11T22:03:52.683Z,98.75
2023-03-11T22:06:19.414Z,99.75
2023-03-11T22:08:45.968Z,99.91
2023-03-11T22:11:17.689Z,100.00
2023-03-11T22:13:49.425Z,100.00
2023-03-11T22:16:16.360Z,100.00
2023-03-11T22:18:43.336Z,100.00
2023-03-11T22:21:10.860Z,100.00
2023-03-11T22:23:37.575Z,100.00
2023-03-11T22:26:04.183Z,100.00
2023-03-11T22:28:30.653Z,100.00
2023-03-11T22:30:57.142Z,100.00
2023-03-11T22:33:23.692Z,100.00
2023-03-11T22:35:55.095Z,100.00
2023-03-11T22:38:21.935Z,100.00
2023-03-11T22:40:48.624Z,100.00
2023-03-11T22:43:15.205Z,100.00
2023-03-11T22:45:41.653Z,100.00
2023-03-11T22:48:08.248Z,100.00
2023-03-11T22:50:34.886Z,100.00
2023-03-11T22:53:01.280Z,100.00
2023-03-11T22:55:27.661Z,100.00
2023-03-11T22:57:54.049Z,100.00
2023-03-11T23:00:22.044Z,100.00
2023-03-11T23:02:52.975Z,100.00
2023-03-11T23:05:19.644Z,100.00
2023-03-11T23:07:46.165Z,100.00
2023-03-11T23:10:14.345Z,100.00
2023-03-11T23:12:41.671Z,100.00
2023-03-11T23:15:12.738Z,100.00
2023-03-11T23:17:39.689Z,100.00
2023-03-11T23:20:08.015Z,100.00
2023-03-11T23:22:38.860Z,100.00
2023-03-11T23:25:07.773Z,100.00
2023-03-11T23:27:34.268Z,100.00
2023-03-11T23:30:00.727Z,100.00
2023-03-11T23:32:27.206Z,100.00
2023-03-11T23:34:53.679Z,100.00
2023-03-11T23:37:20.090Z,100.00
2023-03-11T23:39:46.478Z,100.00
2023-03-11T23:42:25.027Z,100.00
2023-03-11T23:44:52.251Z,100.00
2023-03-11T23:47:18.702Z,100.00
2023-03-11T23:49:45.145Z,100.00
2023-03-11T23:52:11.575Z,100.00
2023-03-11T23:54:38.043Z,100.00
2023-03-11T23:57:04.533Z,100.00
2023-03-11T23:59:30.944Z,100.00
